Date,TemperatureHighF,TemperatureAvgF,TemperatureLowF,DewpointHighF,DewpointAvgF,DewpointLowF,HumidityHigh,HumidityAvg,HumidityLow,PressureMaxIn,PressureMinIn,WindSpeedMaxMPH,WindSpeedAvgMPH,GustSpeedMaxMPH,PrecipitationSumIn
2013-5-1,59.0,45.9,36.0,6.0,-1.5,-10.0,19,14,8,0.00,40.00,7,3,27,0.00
2013-5-2,69.0,50.4,36.0,32.0,14.0,-5.0,51,25,12,0.00,40.00,3,1,9,0.00
2013-5-3,70.0,53.5,41.0,42.0,28.6,8.0,76,45,13,0.00,40.00,5,1,14,0.00
2013-5-4,60.0,50.7,43.0,36.0,23.9,16.0,58,36,23,0.00,40.00,6,2,22,0.00
2013-5-5,56.0,46.4,39.0,44.0,35.6,27.0,92,68,42,0.00,40.00,8,2,25,0.00
2013-5-6,44.0,38.9,33.0,42.0,37.2,32.0,97,94,86,0.00,40.00,3,1,9,0.00
2013-5-7,46.0,39.4,34.0,40.0,37.1,33.0,97,92,73,0.00,40.00,2,1,9,0.00
2013-5-8,58.0,45.7,38.0,43.0,39.7,35.0,97,82,44,0.00,40.00,2,1,8,0.00
2013-5-9,66.0,50.1,40.0,47.0,41.2,34.0,95,75,33,0.00,40.00,3,1,11,0.00
2013-5-10,71.0,54.2,43.0,44.0,38.0,-99.9,87,61,29,0.00,40.00,3,1,11,0.00
2013-5-11,73.0,56.2,45.0,52.0,41.2,-99.9,82,61,22,0.00,40.00,3,1,7,0.00
2013-5-12,73.0,58.0,46.0,46.0,39.2,32.0,73,52,24,0.00,40.00,4,1,9,0.00
2013-5-13,74.0,60.4,48.0,46.0,35.5,29.0,75,43,22,0.00,40.00,6,2,12,0.00
2013-5-14,67.0,56.6,47.0,47.0,37.9,31.0,74,52,26,0.00,40.00,4,1,7,0.00
2013-5-15,67.0,54.9,44.0,42.0,31.5,20.0,74,46,17,0.00,40.00,8,2,19,0.00
2013-5-16,53.0,43.5,42.0,39.0,18.0,-99.9,80,62,48,0.00,40.00,7,3,13,0.00
2013-5-17,58.0,46.5,37.0,35.0,27.5,-99.9,80,57,31,0.00,40.00,5,2,13,0.00
2013-5-18,62.0,47.7,36.0,37.0,31.1,22.0,76,55,24,0.00,40.00,4,2,9,0.00
2013-5-19,64.0,49.9,39.0,36.0,31.2,17.0,84,53,25,0.00,40.00,5,2,16,0.00
2013-5-20,68.0,53.8,43.0,39.0,26.0,17.0,55,35,17,0.00,40.00,5,2,19,0.00
2013-5-21,65.0,54.9,45.0,34.0,26.2,10.0,59,34,21,0.00,40.00,8,4,19,0.00
2013-5-22,55.0,46.3,35.0,28.0,15.6,8.0,56,31,17,0.00,40.00,5,3,19,0.00
2013-5-23,55.0,42.6,31.0,27.0,20.5,9.0,66,44,21,0.00,40.00,5,2,13,0.00
2013-5-24,64.0,47.2,35.0,37.0,28.2,14.0,78,52,15,0.00,40.00,6,2,10,0.00
2013-5-25,63.0,49.5,39.0,36.0,27.0,17.0,67,43,23,0.00,40.00,5,2,11,0.00
2013-5-26,60.0,49.2,39.0,35.0,29.1,25.0,73,47,30,0.00,40.00,6,2,13,0.00
2013-5-27,54.0,46.0,39.0,42.0,32.9,19.0,87,62,33,0.00,40.00,5,2,13,0.00
2013-5-28,59.0,49.9,43.0,42.0,39.2,35.0,93,69,41,0.00,40.00,4,2,10,0.00
2013-5-29,64.0,51.8,42.0,43.0,37.9,31.0,89,61,33,0.00,40.00,6,2,13,0.00
2013-5-30,69.0,51.7,39.0,44.0,36.2,19.0,90,62,17,0.00,40.00,2,1,8,0.00
2013-5-31,53.0,45.6,41.0,41.0,36.1,31.0,81,69,53,0.00,40.00,2,1,7,0.00